Time;durP1;ratioP1;P1;durP2;ratioP2;P2;SDS_P1;SDS_P2;PMS_P1;PMS_P2;Temp;Humidity;BMP_temperature;BMP_pressure;BME280_temperature;BME280_humidity;BME280_pressure;Samples;Min_cycle;Max_cycle;Signal;HPM_P1;HPM_P2
2023/07/05 00:00:52;;;;;;;16.40;8.75;;;;;;;;;;4967680;28;20212;-78
2023/07/05 00:03:17;;;;;;;11.57;7.38;;;;;;;;;;4971541;28;20184;-77
2023/07/05 00:05:42;;;;;;;11.80;8.30;;;;;;;;;;4969633;28;20553;-77
2023/07/05 00:08:08;;;;;;;14.68;8.50;;;;;;;;;;4968421;28;20180;-77
2023/07/05 00:10:33;;;;;;;15.65;8.45;;;;;;;;;;4943854;23;1102849;-70
2023/07/05 00:12:59;;;;;;;15.50;8.63;;;;;;;;;;4971924;28;20263;-70
2023/07/05 00:15:25;;;;;;;17.33;7.70;;;;;;;;;;4969905;28;20667;-71
2023/07/05 00:17:50;;;;;;;18.10;7.85;;;;;;;;;;4971420;28;20217;-70
2023/07/05 00:20:15;;;;;;;14.40;8.65;;;;;;;;;;4965040;28;20212;-71
2023/07/05 00:22:41;;;;;;;12.15;7.82;;;;;;;;;;4968011;28;20274;-70
2023/07/05 00:25:06;;;;;;;13.20;7.50;;;;;;;;;;4966662;28;20744;-70
2023/07/05 00:27:31;;;;;;;14.75;7.45;;;;;;;;;;4971410;28;20181;-70
2023/07/05 00:29:57;;;;;;;9.75;7.40;;;;;;;;;;4974698;28;20209;-71
2023/07/05 00:32:22;;;;;;;9.93;6.43;;;;;;;;;;4965686;28;20180;-70
2023/07/05 00:34:47;;;;;;;13.63;7.40;;;;;;;;;;4968749;28;20737;-70
2023/07/05 00:37:13;;;;;;;12.13;7.18;;;;;;;;;;4968710;28;20184;-71
2023/07/05 00:39:38;;;;;;;12.23;6.93;;;;;;;;;;4969235;28;20562;-71
2023/07/05 00:42:04;;;;;;;13.85;7.13;;;;;;;;;;4970591;28;20603;-71
2023/07/05 00:44:29;;;;;;;13.00;7.07;;;;;;;;;;4961302;28;20200;-71
2023/07/05 00:46:58;;;;;;;10.80;6.95;;;;;;;;;;4972583;28;20173;-71
2023/07/05 00:49:25;;;;;;;10.27;5.45;;;;;;;;;;4969803;28;20563;-70
2023/07/05 00:51:55;;;;;;;6.72;4.57;;;;;;;;;;4969214;28;20200;-71
2023/07/05 00:54:24;;;;;;;9.10;5.50;;;;;;;;;;4970980;28;20214;-71
2023/07/05 00:56:49;;;;;;;8.35;5.30;;;;;;;;;;4968896;28;20176;-70
2023/07/05 00:59:15;;;;;;;11.15;4.75;;;;;;;;;;4967574;28;20187;-71
2023/07/05 01:01:40;;;;;;;7.80;4.82;;;;;;;;;;4966971;28;20192;-71
2023/07/05 01:04:06;;;;;;;7.97;4.80;;;;;;;;;;4951184;28;20188;-71
2023/07/05 01:06:32;;;;;;;8.02;4.53;;;;;;;;;;4967135;28;20177;-71
2023/07/05 01:08:57;;;;;;;6.53;4.40;;;;;;;;;;4970944;28;20227;-70
2023/07/05 01:11:34;;;;;;;5.93;4.30;;;;;;;;;;4969927;28;20606;-70
2023/07/05 01:14:11;;;;;;;5.80;4.03;;;;;;;;;;4965892;28;20172;-70
2023/07/05 01:16:49;;;;;;;8.23;4.75;;;;;;;;;;4969417;28;20176;-71
2023/07/05 01:19:20;;;;;;;7.32;4.88;;;;;;;;;;4964113;28;20236;-71
2023/07/05 01:21:46;;;;;;;5.07;3.67;;;;;;;;;;4962819;28;20227;-71
2023/07/05 01:24:27;;;;;;;7.72;4.28;;;;;;;;;;4963534;28;20180;-70
2023/07/05 01:27:04;;;;;;;7.53;3.83;;;;;;;;;;4962471;28;20172;-71
2023/07/05 01:29:38;;;;;;;4.93;3.33;;;;;;;;;;4963509;28;20176;-70
2023/07/05 01:32:03;;;;;;;5.90;3.83;;;;;;;;;;4960531;28;20363;-70
2023/07/05 01:34:38;;;;;;;4.97;3.35;;;;;;;;;;4965434;28;20327;-69
2023/07/05 01:37:05;;;;;;;5.28;3.00;;;;;;;;;;4960872;28;21194;-69
2023/07/05 01:39:31;;;;;;;4.50;2.67;;;;;;;;;;4962505;28;20286;-69
2023/07/05 01:41:56;;;;;;;8.88;3.50;;;;;;;;;;4960462;28;20654;-69
2023/07/05 01:44:21;;;;;;;4.30;3.00;;;;;;;;;;4961492;28;20271;-70
2023/07/05 01:46:53;;;;;;;3.75;2.60;;;;;;;;;;4962851;28;20184;-69
2023/07/05 01:49:28;;;;;;;4.68;2.42;;;;;;;;;;4963243;28;20186;-69
2023/07/05 01:52:04;;;;;;;4.40;2.47;;;;;;;;;;4962262;28;20211;-69
2023/07/05 01:54:37;;;;;;;6.13;2.40;;;;;;;;;;4963812;28;20172;-69
2023/07/05 01:57:05;;;;;;;3.95;2.15;;;;;;;;;;4966329;28;20184;-69
2023/07/05 01:59:37;;;;;;;3.20;1.90;;;;;;;;;;4974597;28;20192;-70
2023/07/05 02:02:03;;;;;;;3.20;2.00;;;;;;;;;;4970803;28;20659;-68
2023/07/05 02:04:29;;;;;;;6.25;1.85;;;;;;;;;;4972502;28;20204;-68
2023/07/05 02:06:54;;;;;;;3.25;1.75;;;;;;;;;;4973311;28;20188;-70
2023/07/05 02:09:20;;;;;;;2.65;1.70;;;;;;;;;;4971857;28;20177;-69
2023/07/05 02:11:45;;;;;;;2.42;1.40;;;;;;;;;;4982448;28;20212;-70
2023/07/05 02:14:11;;;;;;;2.38;1.60;;;;;;;;;;4972439;28;20567;-70
2023/07/05 02:16:38;;;;;;;4.57;1.40;;;;;;;;;;4973614;28;20172;-69
2023/07/05 02:19:04;;;;;;;2.67;1.38;;;;;;;;;;4972283;28;20639;-69
2023/07/05 02:21:29;;;;;;;5.70;1.45;;;;;;;;;;4962739;28;20231;-70
2023/07/05 02:23:54;;;;;;;8.02;1.70;;;;;;;;;;4965144;28;20559;-69
2023/07/05 02:26:19;;;;;;;2.65;1.55;;;;;;;;;;4965556;28;20678;-69
2023/07/05 02:28:45;;;;;;;3.90;1.70;;;;;;;;;;4965997;28;20201;-69
2023/07/05 02:31:11;;;;;;;3.13;1.70;;;;;;;;;;4965346;28;20208;-69
2023/07/05 02:33:37;;;;;;;2.38;1.40;;;;;;;;;;4964088;28;20225;-69
2023/07/05 02:36:07;;;;;;;4.05;1.80;;;;;;;;;;4966921;28;20853;-69
2023/07/05 02:38:32;;;;;;;6.43;2.78;;;;;;;;;;4965912;28;20450;-69
2023/07/05 02:40:57;;;;;;;5.40;2.90;;;;;;;;;;4965159;28;20642;-69
2023/07/05 02:43:22;;;;;;;5.30;2.50;;;;;;;;;;4972378;28;20605;-69
2023/07/05 02:45:48;;;;;;;7.85;4.75;;;;;;;;;;4966697;28;20879;-68
2023/07/05 02:48:13;;;;;;;9.88;3.63;;;;;;;;;;4966011;28;20733;-69
2023/07/05 02:50:39;;;;;;;6.30;3.85;;;;;;;;;;4965293;28;20690;-69
2023/07/05 02:53:04;;;;;;;3.80;2.75;;;;;;;;;;4964984;28;20658;-70
2023/07/05 02:55:29;;;;;;;4.30;3.33;;;;;;;;;;4969787;28;20196;-68
2023/07/05 02:57:54;;;;;;;4.60;2.97;;;;;;;;;;4973979;28;20421;-69
2023/07/05 03:00:21;;;;;;;5.85;3.03;;;;;;;;;;4969591;28;20266;-69
2023/07/05 03:02:46;;;;;;;8.18;3.08;;;;;;;;;;4973061;28;20250;-68
2023/07/05 03:05:12;;;;;;;5.68;2.72;;;;;;;;;;4968759;28;20673;-68
2023/07/05 03:07:37;;;;;;;5.82;2.65;;;;;;;;;;4973739;28;20616;-69
2023/07/05 03:10:03;;;;;;;4.03;3.15;;;;;;;;;;4971313;28;20674;-69
2023/07/05 03:12:28;;;;;;;4.85;2.55;;;;;;;;;;4972045;28;20239;-68
2023/07/05 03:14:53;;;;;;;3.92;2.88;;;;;;;;;;4972729;28;20568;-68
2023/07/05 03:17:18;;;;;;;4.68;3.00;;;;;;;;;;4973906;28;20177;-68
2023/07/05 03:19:44;;;;;;;9.40;4.55;;;;;;;;;;4973978;28;20219;-69
2023/07/05 03:22:09;;;;;;;5.75;3.85;;;;;;;;;;4959306;28;20320;-69
2023/07/05 03:24:34;;;;;;;6.32;3.70;;;;;;;;;;4973661;28;20693;-68
2023/07/05 03:26:59;;;;;;;6.57;3.95;;;;;;;;;;4971829;28;20608;-68
2023/07/05 03:29:24;;;;;;;5.18;4.10;;;;;;;;;;4973039;28;20567;-69
2023/07/05 03:31:50;;;;;;;15.65;4.13;;;;;;;;;;4971618;28;20543;-68
2023/07/05 03:34:15;;;;;;;8.80;4.88;;;;;;;;;;4971062;28;20686;-68
2023/07/05 03:36:41;;;;;;;6.85;3.70;;;;;;;;;;4973625;28;20185;-69
2023/07/05 03:39:06;;;;;;;6.35;3.50;;;;;;;;;;4971789;28;20176;-68
2023/07/05 03:41:31;;;;;;;9.07;4.28;;;;;;;;;;4972263;28;20207;-68
2023/07/05 03:43:58;;;;;;;5.57;3.45;;;;;;;;;;4973159;28;20173;-68
2023/07/05 03:46:23;;;;;;;5.45;3.15;;;;;;;;;;4970869;28;20196;-68
2023/07/05 03:48:48;;;;;;;7.40;3.42;;;;;;;;;;4970009;28;20226;-68
2023/07/05 03:51:15;;;;;;;6.68;3.63;;;;;;;;;;4970226;28;20196;-67
2023/07/05 03:53:40;;;;;;;5.25;3.63;;;;;;;;;;4970335;28;20238;-68
2023/07/05 03:56:08;;;;;;;5.35;3.42;;;;;;;;;;4969072;28;20192;-68
2023/07/05 03:58:33;;;;;;;5.63;3.70;;;;;;;;;;4971276;28;20173;-67
2023/07/05 04:01:19;;;;;;;5.28;3.28;;;;;;;;;;4971277;28;20212;-67
2023/07/05 04:03:45;;;;;;;6.55;3.67;;;;;;;;;;4964702;28;20188;-67
2023/07/05 04:06:11;;;;;;;5.53;3.55;;;;;;;;;;4972293;28;20315;-68
2023/07/05 04:08:36;;;;;;;5.43;3.38;;;;;;;;;;4971249;28;20176;-68
2023/07/05 04:11:01;;;;;;;7.68;3.80;;;;;;;;;;4969992;28;20228;-68
2023/07/05 04:13:27;;;;;;;5.85;3.15;;;;;;;;;;4976716;28;20179;-68
2023/07/05 04:16:10;;;;;;;5.78;3.40;;;;;;;;;;4971090;28;20220;-68
2023/07/05 04:18:36;;;;;;;5.65;3.15;;;;;;;;;;4958483;28;20184;-68
2023/07/05 04:21:01;;;;;;;6.28;4.07;;;;;;;;;;4971327;28;20685;-68
2023/07/05 04:23:26;;;;;;;6.47;3.65;;;;;;;;;;4973914;28;20252;-68
2023/07/05 04:25:58;;;;;;;4.38;3.30;;;;;;;;;;4970067;28;20211;-68
2023/07/05 04:28:24;;;;;;;7.10;3.53;;;;;;;;;;4971103;28;20252;-67
2023/07/05 04:30:49;;;;;;;5.60;3.05;;;;;;;;;;4965992;28;21622;-67
2023/07/05 04:33:14;;;;;;;8.35;3.95;;;;;;;;;;4984670;28;20271;-68
2023/07/05 04:35:44;;;;;;;6.43;3.47;;;;;;;;;;4962065;28;20214;-68
2023/07/05 04:38:10;;;;;;;5.97;3.83;;;;;;;;;;4964234;28;20191;-68
2023/07/05 04:40:35;;;;;;;7.30;4.35;;;;;;;;;;4964686;28;20204;-68
2023/07/05 04:43:00;;;;;;;8.52;4.20;;;;;;;;;;4969232;28;20232;-69
2023/07/05 04:45:25;;;;;;;4.90;3.47;;;;;;;;;;4969315;28;20317;-68
2023/07/05 04:47:51;;;;;;;5.28;4.03;;;;;;;;;;4969350;28;20231;-69
2023/07/05 04:50:16;;;;;;;5.32;4.50;;;;;;;;;;4965359;28;20343;-68
2023/07/05 04:52:41;;;;;;;7.40;3.72;;;;;;;;;;4968110;28;20186;-69
2023/07/05 04:55:06;;;;;;;8.23;4.07;;;;;;;;;;4967833;28;20259;-70
2023/07/05 04:57:32;;;;;;;8.10;3.88;;;;;;;;;;4961167;28;20261;-70
2023/07/05 05:00:04;;;;;;;6.75;4.00;;;;;;;;;;4969182;28;20231;-70
2023/07/05 05:02:29;;;;;;;9.63;4.97;;;;;;;;;;4958891;28;20187;-70
2023/07/05 05:04:54;;;;;;;5.25;3.80;;;;;;;;;;4973092;28;20788;-69
2023/07/05 05:07:20;;;;;;;5.18;3.08;;;;;;;;;;4972028;28;20541;-69
2023/07/05 05:09:45;;;;;;;7.57;3.08;;;;;;;;;;4967159;28;20551;-70
2023/07/05 05:12:10;;;;;;;7.50;3.58;;;;;;;;;;4970315;28;20184;-70
2023/07/05 05:14:35;;;;;;;5.75;3.08;;;;;;;;;;4969676;28;20187;-69
2023/07/05 05:17:00;;;;;;;5.13;2.78;;;;;;;;;;4968100;28;20558;-69
2023/07/05 05:19:26;;;;;;;4.53;2.85;;;;;;;;;;4969731;28;20191;-69
2023/07/05 05:21:51;;;;;;;4.32;2.55;;;;;;;;;;4968403;28;20250;-69
2023/07/05 05:24:16;;;;;;;6.80;2.83;;;;;;;;;;4964602;28;20286;-69
2023/07/05 05:26:41;;;;;;;4.93;2.67;;;;;;;;;;4962983;28;20715;-69
2023/07/05 05:29:06;;;;;;;3.20;1.95;;;;;;;;;;4968350;28;21587;-69
2023/07/05 05:31:32;;;;;;;3.25;2.10;;;;;;;;;;4968051;28;20734;-70
2023/07/05 05:33:57;;;;;;;4.85;1.83;;;;;;;;;;4964615;28;21028;-69
2023/07/05 05:36:23;;;;;;;2.85;1.63;;;;;;;;;;4963965;28;20280;-70
2023/07/05 05:38:48;;;;;;;4.55;1.85;;;;;;;;;;4967453;28;20569;-71
2023/07/05 05:41:13;;;;;;;3.20;1.90;;;;;;;;;;4966871;28;20262;-68
2023/07/05 05:43:39;;;;;;;6.47;1.40;;;;;;;;;;4974108;28;20184;-69
2023/07/05 05:46:04;;;;;;;2.90;1.60;;;;;;;;;;4972641;28;20574;-68
2023/07/05 05:48:29;;;;;;;5.90;1.70;;;;;;;;;;4973124;28;20288;-68
2023/07/05 05:50:55;;;;;;;6.15;2.15;;;;;;;;;;4971346;28;20227;-69
2023/07/05 05:53:20;;;;;;;5.75;1.85;;;;;;;;;;4976216;28;20475;-69
2023/07/05 05:55:45;;;;;;;6.63;2.13;;;;;;;;;;4972934;28;20185;-69
2023/07/05 05:58:10;;;;;;;4.23;1.80;;;;;;;;;;4973780;28;20180;-68
2023/07/05 06:00:37;;;;;;;4.65;1.58;;;;;;;;;;4962129;28;21160;-69
2023/07/05 06:03:03;;;;;;;2.40;1.65;;;;;;;;;;4966038;28;20655;-69
2023/07/05 06:05:28;;;;;;;3.37;1.50;;;;;;;;;;4972463;28;20208;-70
2023/07/05 06:07:53;;;;;;;2.27;1.20;;;;;;;;;;4975010;28;20772;-69
2023/07/05 06:10:19;;;;;;;2.47;1.17;;;;;;;;;;4984383;23;21125;-75
2023/07/05 06:12:44;;;;;;;5.57;1.20;;;;;;;;;;4987906;28;20203;-73
2023/07/05 06:15:10;;;;;;;3.87;1.30;;;;;;;;;;4977421;28;20178;-74
2023/07/05 06:17:35;;;;;;;5.90;1.23;;;;;;;;;;4976853;28;20260;-74
2023/07/05 06:20:00;;;;;;;4.70;1.50;;;;;;;;;;4979517;28;20263;-74
2023/07/05 06:22:26;;;;;;;4.47;0.97;;;;;;;;;;4976548;28;20180;-74
2023/07/05 06:24:51;;;;;;;5.60;1.20;;;;;;;;;;4979333;28;20208;-74
2023/07/05 06:27:17;;;;;;;6.20;1.20;;;;;;;;;;4987150;28;20180;-73
2023/07/05 06:29:42;;;;;;;4.87;1.00;;;;;;;;;;4975315;28;20191;-77
2023/07/05 06:32:07;;;;;;;4.37;1.00;;;;;;;;;;4978314;28;20271;-74
2023/07/05 06:34:32;;;;;;;6.80;1.30;;;;;;;;;;4980175;28;20191;-73
2023/07/05 06:36:57;;;;;;;6.47;1.27;;;;;;;;;;4979025;28;20184;-72
2023/07/05 06:39:23;;;;;;;2.80;0.90;;;;;;;;;;4977449;28;20184;-73
2023/07/05 06:41:48;;;;;;;5.50;1.33;;;;;;;;;;4991116;28;20203;-73
2023/07/05 06:44:13;;;;;;;3.70;1.23;;;;;;;;;;4978064;28;20181;-73
2023/07/05 06:46:38;;;;;;;3.00;1.30;;;;;;;;;;4976591;28;20206;-72
2023/07/05 06:49:03;;;;;;;9.97;2.07;;;;;;;;;;4968937;28;20180;-72
2023/07/05 06:51:29;;;;;;;5.03;1.90;;;;;;;;;;4980385;28;20195;-75
2023/07/05 06:53:54;;;;;;;2.67;1.73;;;;;;;;;;4981927;28;20243;-72
2023/07/05 06:56:19;;;;;;;4.83;1.30;;;;;;;;;;4981267;28;20198;-72
2023/07/05 06:58:45;;;;;;;4.30;2.37;;;;;;;;;;4987088;28;20223;-75
2023/07/05 07:01:10;;;;;;;4.40;1.50;;;;;;;;;;4974226;28;20204;-75
2023/07/05 07:03:35;;;;;;;4.17;1.47;;;;;;;;;;4969599;28;20181;-74
2023/07/05 07:06:01;;;;;;;7.63;2.10;;;;;;;;;;4982109;28;20203;-74
2023/07/05 07:08:30;;;;;;;8.53;2.13;;;;;;;;;;4984078;28;20223;-73
2023/07/05 07:10:58;;;;;;;4.63;1.90;;;;;;;;;;4967969;28;20224;-73
2023/07/05 07:13:25;;;;;;;9.97;2.60;;;;;;;;;;4966678;28;20914;-73
2023/07/05 07:15:57;;;;;;;9.77;2.30;;;;;;;;;;4966551;28;20188;-74
2023/07/05 07:18:24;;;;;;;8.60;2.50;;;;;;;;;;4966247;28;20195;-81
2023/07/05 07:20:56;;;;;;;10.40;2.30;;;;;;;;;;4963997;28;20219;-76
2023/07/05 07:23:22;;;;;;;8.60;2.97;;;;;;;;;;4964633;28;20192;-74
2023/07/05 07:25:56;;;;;;;9.13;2.77;;;;;;;;;;4966848;28;20243;-74
2023/07/05 07:28:21;;;;;;;5.80;2.93;;;;;;;;;;4964906;28;20642;-74
2023/07/05 07:30:46;;;;;;;5.37;3.70;;;;;;;;;;4963586;28;20339;-75
2023/07/05 07:33:11;;;;;;;5.23;3.03;;;;;;;;;;4965772;28;20180;-73
2023/07/05 07:35:36;;;;;;;5.43;2.90;;;;;;;;;;4969777;28;20189;-74
2023/07/05 07:38:02;;;;;;;8.43;2.83;;;;;;;;;;4968163;28;20258;-74
2023/07/05 07:40:27;;;;;;;6.70;3.10;;;;;;;;;;4969573;28;20677;-72
2023/07/05 07:42:52;;;;;;;7.87;3.10;;;;;;;;;;4962908;28;20642;-74
2023/07/05 07:45:17;;;;;;;7.33;2.87;;;;;;;;;;4963503;28;20223;-73
2023/07/05 07:47:42;;;;;;;5.80;2.97;;;;;;;;;;4966118;28;20204;-73
2023/07/05 07:50:12;;;;;;;7.33;3.00;;;;;;;;;;4980015;28;20207;-73
2023/07/05 07:52:38;;;;;;;5.20;2.93;;;;;;;;;;4979349;28;20176;-72
2023/07/05 07:55:03;;;;;;;6.03;2.80;;;;;;;;;;4974960;28;20188;-71
2023/07/05 07:57:28;;;;;;;5.90;2.95;;;;;;;;;;4967409;28;20191;-75
2023/07/05 07:59:53;;;;;;;9.23;3.20;;;;;;;;;;4965418;28;20185;-72
2023/07/05 08:02:19;;;;;;;7.90;2.90;;;;;;;;;;4947325;28;20460;-73
2023/07/05 08:04:45;;;;;;;11.68;3.33;;;;;;;;;;4957495;28;20246;-73
2023/07/05 08:07:10;;;;;;;6.18;3.45;;;;;;;;;;4952032;28;20248;-74
2023/07/05 08:09:36;;;;;;;10.15;3.20;;;;;;;;;;4956495;28;20201;-73
2023/07/05 08:12:01;;;;;;;8.43;2.85;;;;;;;;;;4962888;28;20203;-72
2023/07/05 08:14:28;;;;;;;8.97;2.47;;;;;;;;;;4953614;28;20180;-74
2023/07/05 08:16:53;;;;;;;5.10;2.60;;;;;;;;;;4950052;28;20185;-73
2023/07/05 08:19:20;;;;;;;4.90;2.70;;;;;;;;;;4953135;28;20718;-74
2023/07/05 08:21:46;;;;;;;10.73;3.70;;;;;;;;;;4951820;28;20267;-73
2023/07/05 08:24:11;;;;;;;5.23;2.70;;;;;;;;;;4950108;28;20184;-74
2023/07/05 08:26:37;;;;;;;7.80;2.10;;;;;;;;;;4952638;28;20217;-73
2023/07/05 08:29:03;;;;;;;5.07;2.40;;;;;;;;;;4958127;28;20192;-73
2023/07/05 08:31:28;;;;;;;6.40;2.20;;;;;;;;;;4951846;28;20261;-73
2023/07/05 08:33:54;;;;;;;3.17;1.80;;;;;;;;;;4952290;28;20204;-74
2023/07/05 08:36:28;;;;;;;7.73;2.60;;;;;;;;;;4950337;28;20192;-73
2023/07/05 08:38:54;;;;;;;5.43;2.50;;;;;;;;;;4953244;28;20239;-73
2023/07/05 08:41:29;;;;;;;8.90;2.23;;;;;;;;;;4951614;28;20204;-74
2023/07/05 08:44:00;;;;;;;9.30;2.60;;;;;;;;;;4952316;28;20180;-73
2023/07/05 08:46:26;;;;;;;10.80;3.10;;;;;;;;;;4952905;28;20199;-74
2023/07/05 08:48:54;;;;;;;4.03;2.90;;;;;;;;;;4952251;28;20216;-74
2023/07/05 08:51:20;;;;;;;10.47;2.87;;;;;;;;;;4949962;28;20264;-73
2023/07/05 08:53:50;;;;;;;5.43;2.60;;;;;;;;;;4950683;28;20394;-74
2023/07/05 08:56:21;;;;;;;3.73;2.27;;;;;;;;;;4953495;28;20183;-73
2023/07/05 08:58:48;;;;;;;6.10;2.33;;;;;;;;;;4953173;28;20790;-73
2023/07/05 09:01:29;;;;;;;6.17;2.33;;;;;;;;;;4953185;28;20303;-74
2023/07/05 09:03:56;;;;;;;5.53;2.33;;;;;;;;;;4951530;28;20630;-72
2023/07/05 09:06:21;;;;;;;7.00;2.23;;;;;;;;;;4949093;28;20208;-74
2023/07/05 09:08:52;;;;;;;5.87;2.50;;;;;;;;;;4953239;28;20315;-74
2023/07/05 09:11:25;;;;;;;8.83;2.53;;;;;;;;;;4949833;28;20215;-73
2023/07/05 09:13:52;;;;;;;11.03;2.60;;;;;;;;;;4952537;28;20176;-72
2023/07/05 09:16:17;;;;;;;4.27;2.07;;;;;;;;;;4955618;28;20180;-72
2023/07/05 09:18:54;;;;;;;6.17;2.10;;;;;;;;;;4952706;28;20302;-71
2023/07/05 09:21:20;;;;;;;7.97;2.53;;;;;;;;;;4952597;28;20739;-71
2023/07/05 09:23:48;;;;;;;9.97;2.73;;;;;;;;;;4949558;28;20300;-72
2023/07/05 09:26:28;;;;;;;12.37;2.80;;;;;;;;;;4954282;28;20203;-72
2023/07/05 09:29:00;;;;;;;9.15;3.30;;;;;;;;;;4952465;28;20603;-71
2023/07/05 09:31:25;;;;;;;9.32;2.75;;;;;;;;;;4951173;28;20208;-70
2023/07/05 09:34:11;;;;;;;10.15;3.10;;;;;;;;;;4951099;28;20938;-70
2023/07/05 09:36:37;;;;;;;15.82;3.22;;;;;;;;;;4921114;28;20192;-72
2023/07/05 09:39:07;;;;;;;8.95;2.97;;;;;;;;;;4952551;28;20281;-70
2023/07/05 09:41:53;;;;;;;12.07;3.85;;;;;;;;;;4954596;28;20597;-71
2023/07/05 09:44:19;;;;;;;8.00;3.20;;;;;;;;;;4951836;28;20192;-71
2023/07/05 09:46:45;;;;;;;13.07;3.65;;;;;;;;;;4951401;28;20267;-71
2023/07/05 09:49:11;;;;;;;9.88;3.70;;;;;;;;;;4950748;28;20207;-71
2023/07/05 09:51:38;;;;;;;12.52;4.38;;;;;;;;;;4952384;28;20208;-71
2023/07/05 09:54:07;;;;;;;10.07;3.70;;;;;;;;;;4951789;28;20211;-72
2023/07/05 09:56:32;;;;;;;9.02;3.53;;;;;;;;;;4952113;28;20184;-71
2023/07/05 09:59:07;;;;;;;6.50;3.10;;;;;;;;;;4952716;28;20557;-73
2023/07/05 10:01:34;;;;;;;9.43;3.22;;;;;;;;;;4951127;28;20615;-71
2023/07/05 10:04:02;;;;;;;7.00;2.45;;;;;;;;;;4950394;28;20199;-72
2023/07/05 10:06:28;;;;;;;10.07;3.33;;;;;;;;;;4952016;28;20961;-71
2023/07/05 10:08:54;;;;;;;9.25;3.63;;;;;;;;;;4951436;28;20587;-72
2023/07/05 10:11:20;;;;;;;6.85;2.63;;;;;;;;;;4955058;28;20209;-72
2023/07/05 10:13:45;;;;;;;5.63;2.60;;;;;;;;;;4951711;28;20218;-72
2023/07/05 10:16:11;;;;;;;9.05;2.65;;;;;;;;;;4957549;28;20263;-71
2023/07/05 10:18:39;;;;;;;6.00;2.60;;;;;;;;;;4972176;28;20172;-71
2023/07/05 10:21:09;;;;;;;13.32;2.72;;;;;;;;;;4963989;28;20216;-71
2023/07/05 10:23:34;;;;;;;8.70;2.28;;;;;;;;;;4951260;28;20196;-72
2023/07/05 10:26:02;;;;;;;7.45;2.38;;;;;;;;;;4954133;28;20222;-70
2023/07/05 10:28:29;;;;;;;14.75;3.10;;;;;;;;;;4956153;28;20223;-71
2023/07/05 10:30:59;;;;;;;7.97;2.05;;;;;;;;;;4972556;28;20784;-72
2023/07/05 10:33:29;;;;;;;7.07;1.90;;;;;;;;;;4959139;28;20656;-71
2023/07/05 10:35:58;;;;;;;12.00;3.03;;;;;;;;;;4969813;28;20185;-71
2023/07/05 10:38:26;;;;;;;5.03;3.13;;;;;;;;;;4975763;28;20183;-72
2023/07/05 10:40:52;;;;;;;6.40;2.47;;;;;;;;;;4970777;28;20204;-72
2023/07/05 10:43:18;;;;;;;5.95;2.58;;;;;;;;;;4973138;28;20184;-72
2023/07/05 10:45:43;;;;;;;8.52;2.17;;;;;;;;;;4972844;28;20223;-72
2023/07/05 10:48:15;;;;;;;8.25;2.47;;;;;;;;;;4966625;28;20962;-72
2023/07/05 10:50:41;;;;;;;9.10;2.28;;;;;;;;;;4959978;28;20965;-70
2023/07/05 10:53:11;;;;;;;4.75;2.88;;;;;;;;;;4954521;28;20271;-72
2023/07/05 10:55:55;;;;;;;4.88;1.90;;;;;;;;;;4955152;28;20608;-71
2023/07/05 10:58:21;;;;;;;5.05;2.20;;;;;;;;;;4955469;28;20341;-71
2023/07/05 11:00:49;;;;;;;5.95;2.20;;;;;;;;;;4952320;28;20212;-70
2023/07/05 11:03:24;;;;;;;5.70;1.55;;;;;;;;;;4951444;28;20242;-72
2023/07/05 11:05:51;;;;;;;4.55;1.90;;;;;;;;;;4953699;28;20597;-72
2023/07/05 11:08:27;;;;;;;4.90;1.95;;;;;;;;;;4955373;28;20719;-74
2023/07/05 11:10:54;;;;;;;8.98;1.90;;;;;;;;;;4954372;28;20212;-72
2023/07/05 11:13:20;;;;;;;8.60;1.92;;;;;;;;;;4954469;28;20674;-71
2023/07/05 11:15:45;;;;;;;6.65;1.83;;;;;;;;;;4954143;28;20212;-72
2023/07/05 11:18:18;;;;;;;4.22;1.75;;;;;;;;;;4955679;28;20195;-73
2023/07/05 11:20:45;;;;;;;3.53;1.40;;;;;;;;;;4954957;28;20204;-72
2023/07/05 11:23:11;;;;;;;7.40;1.60;;;;;;;;;;4955996;28;21548;-73
2023/07/05 11:25:51;;;;;;;5.30;1.65;;;;;;;;;;4964852;28;20199;-73
2023/07/05 11:28:36;;;;;;;5.65;1.67;;;;;;;;;;4965360;28;20191;-74
2023/07/05 11:31:02;;;;;;;4.28;2.00;;;;;;;;;;4954443;28;20200;-72
2023/07/05 11:33:28;;;;;;;3.22;1.77;;;;;;;;;;4954550;28;20177;-71
2023/07/05 11:35:54;;;;;;;5.63;1.60;;;;;;;;;;4957389;28;20208;-72
2023/07/05 11:38:35;;;;;;;4.97;1.52;;;;;;;;;;4955304;28;20188;-73
2023/07/05 11:41:01;;;;;;;3.95;1.25;;;;;;;;;;4955068;28;20212;-71
2023/07/05 11:43:32;;;;;;;2.72;1.88;;;;;;;;;;4954853;28;20187;-71
2023/07/05 11:45:58;;;;;;;3.17;1.90;;;;;;;;;;4953415;28;20213;-71
2023/07/05 11:48:39;;;;;;;10.82;2.80;;;;;;;;;;4955610;28;20200;-72
2023/07/05 11:51:10;;;;;;;12.98;2.13;;;;;;;;;;4956318;28;20227;-72
2023/07/05 11:53:36;;;;;;;3.25;1.63;;;;;;;;;;4951822;28;20647;-72
2023/07/05 11:56:02;;;;;;;6.65;1.67;;;;;;;;;;4951218;28;20186;-73
2023/07/05 11:58:28;;;;;;;4.88;1.45;;;;;;;;;;4953158;28;20691;-71
2023/07/05 12:00:58;;;;;;;4.32;1.25;;;;;;;;;;4952997;28;20212;-73
2023/07/05 12:03:42;;;;;;;3.28;1.20;;;;;;;;;;4954207;28;20188;-72
2023/07/05 12:06:18;;;;;;;6.18;1.80;;;;;;;;;;4955258;28;20216;-72
2023/07/05 12:08:45;;;;;;;4.60;1.48;;;;;;;;;;4953952;28;20813;-73
2023/07/05 12:11:11;;;;;;;4.45;1.77;;;;;;;;;;4981104;22;20239;-68
2023/07/05 12:13:36;;;;;;;8.93;1.27;;;;;;;;;;4954267;28;20189;-68
2023/07/05 12:16:04;;;;;;;2.55;1.25;;;;;;;;;;4958571;28;20185;-68
2023/07/05 12:18:30;;;;;;;5.45;1.80;;;;;;;;;;4953471;28;20268;-68
2023/07/05 12:20:58;;;;;;;5.13;1.63;;;;;;;;;;4954561;28;20278;-69
2023/07/05 12:23:24;;;;;;;8.02;1.65;;;;;;;;;;4953349;28;20655;-69
2023/07/05 12:25:53;;;;;;;13.05;2.65;;;;;;;;;;4955769;28;20578;-69
2023/07/05 12:28:30;;;;;;;2.38;1.20;;;;;;;;;;4955165;28;20185;-68
2023/07/05 12:30:59;;;;;;;4.32;1.30;;;;;;;;;;4953968;28;20207;-68
2023/07/05 12:33:28;;;;;;;4.80;1.58;;;;;;;;;;4950623;28;20208;-69
2023/07/05 12:36:07;;;;;;;7.85;1.63;;;;;;;;;;4954672;28;20386;-69
2023/07/05 12:38:33;;;;;;;3.05;1.65;;;;;;;;;;4952598;28;20188;-68
2023/07/05 12:40:58;;;;;;;4.65;1.30;;;;;;;;;;4954890;28;20569;-68
2023/07/05 12:43:28;;;;;;;4.38;1.77;;;;;;;;;;4955872;28;20188;-68
2023/07/05 12:46:04;;;;;;;11.07;1.90;;;;;;;;;;4955740;28;20285;-68
2023/07/05 12:48:29;;;;;;;4.68;1.63;;;;;;;;;;4953268;28;20558;-68
2023/07/05 12:51:03;;;;;;;5.60;1.75;;;;;;;;;;4955146;28;20216;-68
2023/07/05 12:53:28;;;;;;;4.05;1.67;;;;;;;;;;4953957;28;20195;-68
2023/07/05 12:56:03;;;;;;;4.50;1.48;;;;;;;;;;4953240;28;20188;-68
2023/07/05 12:58:29;;;;;;;4.25;1.95;;;;;;;;;;4953743;28;20662;-69
2023/07/05 13:00:59;;;;;;;2.40;1.25;;;;;;;;;;4953906;28;20215;-68
2023/07/05 13:03:25;;;;;;;5.57;1.73;;;;;;;;;;4954296;28;20185;-68
2023/07/05 13:05:51;;;;;;;6.05;2.28;;;;;;;;;;4955217;28;20212;-68
2023/07/05 13:08:17;;;;;;;4.32;1.60;;;;;;;;;;4954294;28;20177;-68
2023/07/05 13:10:43;;;;;;;2.90;1.98;;;;;;;;;;4956559;28;20266;-68
2023/07/05 13:13:30;;;;;;;6.13;1.33;;;;;;;;;;4954706;28;20176;-68
2023/07/05 13:15:57;;;;;;;3.15;1.50;;;;;;;;;;4957447;28;20806;-67
2023/07/05 13:18:30;;;;;;;4.22;1.80;;;;;;;;;;4955484;28;20199;-68
2023/07/05 13:21:12;;;;;;;5.70;1.40;;;;;;;;;;4955260;28;20235;-68
2023/07/05 13:23:48;;;;;;;2.63;1.42;;;;;;;;;;4953539;28;20955;-69
2023/07/05 13:26:26;;;;;;;2.45;1.85;;;;;;;;;;4952388;28;20299;-68
2023/07/05 13:28:53;;;;;;;4.20;1.67;;;;;;;;;;4955836;28;20259;-67
2023/07/05 13:31:19;;;;;;;4.70;1.70;;;;;;;;;;4952859;28;20782;-68
2023/07/05 13:33:45;;;;;;;3.17;1.50;;;;;;;;;;4952524;28;20342;-68
2023/07/05 13:36:10;;;;;;;3.50;1.50;;;;;;;;;;4952704;28;20887;-68
2023/07/05 13:38:35;;;;;;;5.88;2.10;;;;;;;;;;4953288;28;20204;-68
2023/07/05 13:41:03;;;;;;;4.50;1.95;;;;;;;;;;4953343;28;20278;-68
2023/07/05 13:43:29;;;;;;;5.18;2.45;;;;;;;;;;4953040;28;20662;-68
2023/07/05 13:45:54;;;;;;;12.18;2.35;;;;;;;;;;4952956;28;20212;-68
2023/07/05 13:48:23;;;;;;;5.78;1.98;;;;;;;;;;4951364;28;20179;-68
2023/07/05 13:50:48;;;;;;;6.25;2.22;;;;;;;;;;4953149;28;20215;-68
2023/07/05 13:53:18;;;;;;;1.80;1.35;;;;;;;;;;4953874;28;20176;-69
2023/07/05 13:55:43;;;;;;;2.95;1.75;;;;;;;;;;4955955;28;20192;-70
2023/07/05 13:58:11;;;;;;;2.85;1.75;;;;;;;;;;4966007;28;20187;-68
2023/07/05 14:00:37;;;;;;;5.15;1.98;;;;;;;;;;4968669;28;20208;-68
2023/07/05 14:03:03;;;;;;;2.95;2.00;;;;;;;;;;4968228;28;20211;-68
2023/07/05 14:05:28;;;;;;;3.38;2.03;;;;;;;;;;4968794;28;20208;-68
2023/07/05 14:07:54;;;;;;;3.63;2.60;;;;;;;;;;4967608;28;20176;-68
2023/07/05 14:10:20;;;;;;;4.80;2.38;;;;;;;;;;4965018;28;20712;-68
2023/07/05 14:12:45;;;;;;;5.50;1.95;;;;;;;;;;4959860;28;20218;-68
2023/07/05 14:15:22;;;;;;;4.60;2.28;;;;;;;;;;4966317;28;20183;-68
2023/07/05 14:17:47;;;;;;;7.72;2.58;;;;;;;;;;4973622;28;20180;-68
2023/07/05 14:20:13;;;;;;;2.67;1.75;;;;;;;;;;4959837;28;20784;-68
2023/07/05 14:22:38;;;;;;;2.83;1.77;;;;;;;;;;4972748;28;20587;-68
2023/07/05 14:25:09;;;;;;;5.32;1.98;;;;;;;;;;4959552;28;20211;-68
2023/07/05 14:27:35;;;;;;;5.25;2.47;;;;;;;;;;4960668;28;20230;-68
2023/07/05 14:30:00;;;;;;;3.92;2.53;;;;;;;;;;4961193;28;20559;-68
2023/07/05 14:32:25;;;;;;;8.52;2.30;;;;;;;;;;4956849;28;20838;-68
2023/07/05 14:34:50;;;;;;;3.75;2.28;;;;;;;;;;4957137;28;20556;-68
2023/07/05 14:37:16;;;;;;;3.90;1.98;;;;;;;;;;4955751;28;20267;-68
2023/07/05 14:39:41;;;;;;;3.90;2.22;;;;;;;;;;4956072;28;20260;-68
2023/07/05 14:42:08;;;;;;;6.78;2.33;;;;;;;;;;4953180;28;20208;-68